Merrittstown, Pennsylvania
Current Conditions -  °F | °C
As of 2:53 PM on Friday 24 Oct 2014 (Local Time) from KMGW Reporting Station
Clear Clear  
Wind Chill: 59°   Ceiling: Unl
Heat Index: 59°   Visibility: 10mi
Dew Point: 41°   Wind: 3mph
Humidity: 51%   Direction: NA
Pressure: 30.04"   Gusts: NA
Location:  39.97°N, 79.88°W
Report Text: KMGW 241853Z VRB03KT 10SM CLR 15/05 A3004 RMK AO2 SLP174 T01500050
Loading
Personal Weather Stations






























Interactive Weather Map
Tropical Storm Tracking
New forecast layout! Learn more

10-Day Weather Forecast

Advertisements
Track Severe Weather on mobile